Time;durP1;ratioP1;P1;durP2;ratioP2;P2;SDS_P1;SDS_P2;PMS_P1;PMS_P2;Temp;Humidity;BMP_temperature;BMP_pressure;BME280_temperature;BME280_humidity;BME280_pressure;Samples;Min_cycle;Max_cycle;Signal;HPM_P1;HPM_P2
2022/06/09 00:00:49;;;;;;;13.40;2.27;;;;;;;;;;5345345;27;20031;-72
2022/06/09 00:03:42;;;;;;;11.23;2.47;;;;;;;;;;5345590;27;20720;-72
2022/06/09 00:06:14;;;;;;;12.63;3.33;;;;;;;;;;5345761;27;20031;-72
2022/06/09 00:08:47;;;;;;;11.50;2.70;;;;;;;;;;5345230;27;20025;-73
2022/06/09 00:11:19;;;;;;;18.02;2.47;;;;;;;;;;5345240;27;20023;-72
2022/06/09 00:13:51;;;;;;;12.88;2.17;;;;;;;;;;5346115;27;20374;-72
2022/06/09 00:16:23;;;;;;;12.00;3.75;;;;;;;;;;5345185;27;20019;-72
2022/06/09 00:18:55;;;;;;;14.48;2.13;;;;;;;;;;5345727;27;20054;-72
2022/06/09 00:21:26;;;;;;;14.88;3.08;;;;;;;;;;5344766;27;20019;-72
2022/06/09 00:23:58;;;;;;;15.02;3.08;;;;;;;;;;5345891;27;20038;-71
2022/06/09 00:26:29;;;;;;;10.25;2.85;;;;;;;;;;5345276;27;20039;-72
2022/06/09 00:29:01;;;;;;;18.55;2.50;;;;;;;;;;5344885;27;20015;-72
2022/06/09 00:31:32;;;;;;;14.45;2.75;;;;;;;;;;5345418;27;20023;-72
2022/06/09 00:34:03;;;;;;;18.75;2.97;;;;;;;;;;5345741;27;20015;-72
2022/06/09 00:36:35;;;;;;;24.55;2.40;;;;;;;;;;5344562;27;20019;-72
2022/06/09 00:39:06;;;;;;;12.20;2.17;;;;;;;;;;5345645;27;20019;-72
2022/06/09 00:41:38;;;;;;;12.52;3.00;;;;;;;;;;5345424;27;20434;-72
2022/06/09 00:44:28;;;;;;;17.38;2.30;;;;;;;;;;5344588;27;20023;-72
2022/06/09 00:47:04;;;;;;;20.65;2.30;;;;;;;;;;5345461;27;20038;-71
2022/06/09 00:49:55;;;;;;;19.00;2.45;;;;;;;;;;5344067;27;20019;-71
2022/06/09 00:52:29;;;;;;;14.00;2.83;;;;;;;;;;5344729;27;20023;-71
2022/06/09 00:55:05;;;;;;;14.35;2.15;;;;;;;;;;5345022;27;20015;-72
2022/06/09 00:57:41;;;;;;;15.73;2.65;;;;;;;;;;5343977;27;20023;-72
2022/06/09 01:00:15;;;;;;;19.08;2.85;;;;;;;;;;5344897;27;20019;-72
2022/06/09 01:02:47;;;;;;;19.27;2.42;;;;;;;;;;5344995;27;20072;-72
2022/06/09 01:05:19;;;;;;;16.00;2.92;;;;;;;;;;5343727;27;20027;-72
2022/06/09 01:07:52;;;;;;;21.38;4.05;;;;;;;;;;5345062;27;20485;-72
2022/06/09 01:10:23;;;;;;;19.05;2.72;;;;;;;;;;5344273;28;20023;-72
2022/06/09 01:12:54;;;;;;;20.80;3.20;;;;;;;;;;5344605;28;20011;-72
2022/06/09 01:15:39;;;;;;;19.23;3.53;;;;;;;;;;5344448;28;20143;-72
2022/06/09 01:18:29;;;;;;;19.05;3.47;;;;;;;;;;5343967;28;20445;-72
2022/06/09 01:21:00;;;;;;;22.33;4.30;;;;;;;;;;5344855;27;20054;-72
2022/06/09 01:23:44;;;;;;;16.77;3.60;;;;;;;;;;5346795;27;20043;-72
2022/06/09 01:26:23;;;;;;;23.13;3.13;;;;;;;;;;5348339;27;20300;-72
2022/06/09 01:29:09;;;;;;;19.65;3.65;;;;;;;;;;5349583;27;20486;-72
2022/06/09 01:31:53;;;;;;;18.17;3.75;;;;;;;;;;5348523;27;20015;-72
2022/06/09 01:34:39;;;;;;;19.98;4.13;;;;;;;;;;5348994;27;20461;-72
2022/06/09 01:37:13;;;;;;;21.73;3.53;;;;;;;;;;5348952;27;20091;-72
2022/06/09 01:39:47;;;;;;;22.98;3.22;;;;;;;;;;5348426;27;20350;-72
2022/06/09 01:42:19;;;;;;;22.77;4.28;;;;;;;;;;5348692;27;20015;-72
2022/06/09 01:44:53;;;;;;;24.35;4.32;;;;;;;;;;5349590;27;20423;-72
2022/06/09 01:47:27;;;;;;;19.10;4.78;;;;;;;;;;5347758;27;20015;-72
2022/06/09 01:50:00;;;;;;;25.70;5.63;;;;;;;;;;5349290;27;20027;-72
2022/06/09 01:52:31;;;;;;;19.00;4.13;;;;;;;;;;5348695;27;20046;-72
2022/06/09 01:55:03;;;;;;;18.42;4.22;;;;;;;;;;5348010;27;20042;-72
2022/06/09 01:57:36;;;;;;;19.15;4.22;;;;;;;;;;5348494;27;20023;-72
2022/06/09 02:00:11;;;;;;;20.73;4.00;;;;;;;;;;5347718;27;20023;-72
2022/06/09 02:02:47;;;;;;;20.88;4.07;;;;;;;;;;5348380;27;20027;-72
2022/06/09 02:05:23;;;;;;;18.20;4.30;;;;;;;;;;5348305;27;20035;-73
2022/06/09 02:07:55;;;;;;;25.90;4.97;;;;;;;;;;5348068;27;20027;-72
2022/06/09 02:10:35;;;;;;;20.35;5.03;;;;;;;;;;5348036;27;20397;-73
2022/06/09 02:13:08;;;;;;;20.92;5.45;;;;;;;;;;5348584;27;20480;-72
2022/06/09 02:15:41;;;;;;;19.23;4.78;;;;;;;;;;5347482;27;20071;-72
2022/06/09 02:18:15;;;;;;;26.70;5.15;;;;;;;;;;5347327;27;20046;-72
2022/06/09 02:20:52;;;;;;;21.58;4.82;;;;;;;;;;5346572;28;20057;-72
2022/06/09 02:23:23;;;;;;;19.73;5.05;;;;;;;;;;5346718;28;20019;-73
2022/06/09 02:25:55;;;;;;;26.25;5.18;;;;;;;;;;5347069;28;20114;-73
2022/06/09 02:28:26;;;;;;;24.17;5.90;;;;;;;;;;5345918;27;20466;-73
2022/06/09 02:30:57;;;;;;;21.50;5.22;;;;;;;;;;5346970;27;20068;-72
2022/06/09 02:33:28;;;;;;;27.33;6.20;;;;;;;;;;5346283;27;20019;-72
2022/06/09 02:36:00;;;;;;;25.90;5.32;;;;;;;;;;5346457;28;20030;-72
2022/06/09 02:38:31;;;;;;;33.90;5.95;;;;;;;;;;5346663;28;20023;-72
2022/06/09 02:41:02;;;;;;;27.58;5.80;;;;;;;;;;5346424;27;20019;-72
2022/06/09 02:43:34;;;;;;;30.65;6.25;;;;;;;;;;5345426;27;20454;-72
2022/06/09 02:46:05;;;;;;;24.75;6.00;;;;;;;;;;5346347;27;20031;-72
2022/06/09 02:48:36;;;;;;;25.65;6.53;;;;;;;;;;5346653;27;20110;-72
2022/06/09 02:51:26;;;;;;;28.80;6.30;;;;;;;;;;5345580;28;20030;-72
2022/06/09 02:53:58;;;;;;;25.25;6.70;;;;;;;;;;5346707;28;20016;-72
2022/06/09 02:56:29;;;;;;;25.70;6.15;;;;;;;;;;5345397;27;20106;-72
2022/06/09 02:59:01;;;;;;;31.42;5.82;;;;;;;;;;5346646;28;20114;-72
2022/06/09 03:01:32;;;;;;;31.83;6.32;;;;;;;;;;5346187;28;20094;-72
2022/06/09 03:04:05;;;;;;;31.17;7.03;;;;;;;;;;5345650;28;20106;-72
2022/06/09 03:06:36;;;;;;;23.52;6.03;;;;;;;;;;5346024;28;20385;-72
2022/06/09 03:09:07;;;;;;;24.98;5.80;;;;;;;;;;5346183;28;20080;-72
2022/06/09 03:11:38;;;;;;;21.77;5.60;;;;;;;;;;5345607;28;20390;-72
2022/06/09 03:14:10;;;;;;;22.13;5.80;;;;;;;;;;5346217;27;20399;-72
2022/06/09 03:16:41;;;;;;;22.27;6.18;;;;;;;;;;5308686;27;1043913;-71
2022/06/09 03:19:12;;;;;;;27.30;6.22;;;;;;;;;;5346334;27;20369;-72
2022/06/09 03:21:44;;;;;;;24.73;7.18;;;;;;;;;;5347010;27;20030;-72
2022/06/09 03:24:15;;;;;;;31.40;6.55;;;;;;;;;;5346116;27;20378;-72
2022/06/09 03:26:46;;;;;;;28.42;6.30;;;;;;;;;;5346863;27;20084;-72
2022/06/09 03:29:19;;;;;;;28.15;8.15;;;;;;;;;;5346860;27;20267;-73
2022/06/09 03:31:51;;;;;;;26.30;6.60;;;;;;;;;;5346333;27;20026;-72
2022/06/09 03:34:22;;;;;;;25.80;6.45;;;;;;;;;;5346616;27;20526;-72
2022/06/09 03:36:53;;;;;;;28.15;7.40;;;;;;;;;;5347116;27;20018;-73
2022/06/09 03:39:24;;;;;;;21.80;6.22;;;;;;;;;;5345605;27;20026;-72
2022/06/09 03:41:55;;;;;;;30.08;6.78;;;;;;;;;;5346862;27;20016;-72
2022/06/09 03:44:27;;;;;;;28.73;7.10;;;;;;;;;;5346147;27;20076;-72
2022/06/09 03:46:58;;;;;;;28.80;7.35;;;;;;;;;;5345347;27;20295;-72
2022/06/09 03:49:29;;;;;;;27.53;6.97;;;;;;;;;;5346178;27;20026;-72
2022/06/09 03:52:00;;;;;;;25.65;6.97;;;;;;;;;;5346625;27;20265;-73
2022/06/09 03:54:31;;;;;;;26.63;7.65;;;;;;;;;;5345491;27;20023;-73
2022/06/09 03:57:03;;;;;;;35.63;8.02;;;;;;;;;;5346713;27;20023;-72
2022/06/09 03:59:34;;;;;;;27.55;6.93;;;;;;;;;;5345602;27;20378;-72
2022/06/09 04:02:05;;;;;;;30.33;6.90;;;;;;;;;;5346217;27;20025;-72
2022/06/09 04:04:36;;;;;;;29.27;7.40;;;;;;;;;;5346042;27;20011;-72
2022/06/09 04:07:09;;;;;;;24.20;6.60;;;;;;;;;;5345414;27;20945;-73
2022/06/09 04:09:40;;;;;;;36.75;8.15;;;;;;;;;;5346114;27;20354;-72
2022/06/09 04:12:11;;;;;;;21.80;6.85;;;;;;;;;;5346102;27;20023;-72
2022/06/09 04:14:42;;;;;;;27.17;7.45;;;;;;;;;;5345128;27;20022;-72
2022/06/09 04:17:14;;;;;;;31.85;6.85;;;;;;;;;;5345646;27;20148;-72
2022/06/09 04:19:45;;;;;;;22.42;7.10;;;;;;;;;;5345901;27;20160;-72
2022/06/09 04:22:16;;;;;;;24.02;6.80;;;;;;;;;;5344907;27;20504;-72
2022/06/09 04:24:47;;;;;;;21.77;6.97;;;;;;;;;;5345771;27;20015;-72
2022/06/09 04:27:19;;;;;;;24.73;6.85;;;;;;;;;;5345470;27;20015;-73
2022/06/09 04:29:50;;;;;;;29.30;7.28;;;;;;;;;;5345150;27;20045;-71
2022/06/09 04:32:21;;;;;;;33.35;8.20;;;;;;;;;;5345367;27;20030;-71
2022/06/09 04:34:53;;;;;;;28.50;8.20;;;;;;;;;;5345268;27;20156;-71
2022/06/09 04:37:59;;;;;;;25.13;7.97;;;;;;;;;;5345179;27;20007;-71
2022/06/09 04:40:15;;;;;;;30.35;8.32;;;;;;;;;;5345140;27;20378;-71
2022/06/09 04:42:46;;;;;;;20.67;6.57;;;;;;;;;;5344764;27;20087;-71
2022/06/09 04:45:18;;;;;;;26.77;7.57;;;;;;;;;;5345400;27;20067;-71
2022/06/09 04:47:49;;;;;;;30.02;7.65;;;;;;;;;;5345538;27;20084;-71
2022/06/09 04:50:20;;;;;;;31.30;7.65;;;;;;;;;;5344210;27;20046;-71
2022/06/09 04:52:52;;;;;;;27.52;7.47;;;;;;;;;;5345412;27;20019;-71
2022/06/09 04:55:23;;;;;;;25.80;6.97;;;;;;;;;;5344781;27;20066;-71
2022/06/09 04:57:55;;;;;;;24.23;7.57;;;;;;;;;;5344952;27;20392;-71
2022/06/09 05:00:27;;;;;;;25.05;7.00;;;;;;;;;;5344841;27;20019;-71
2022/06/09 05:02:59;;;;;;;28.90;7.70;;;;;;;;;;5344554;27;20022;-71
2022/06/09 05:05:35;;;;;;;26.10;7.55;;;;;;;;;;5344603;27;20038;-71
2022/06/09 05:08:06;;;;;;;29.40;8.35;;;;;;;;;;5345283;27;20504;-71
2022/06/09 05:10:39;;;;;;;29.65;7.72;;;;;;;;;;5344305;28;20031;-72
2022/06/09 05:13:10;;;;;;;25.17;7.53;;;;;;;;;;5344954;28;20105;-72
2022/06/09 05:15:49;;;;;;;25.15;6.95;;;;;;;;;;5344961;28;20156;-71
2022/06/09 05:18:22;;;;;;;21.52;7.53;;;;;;;;;;5343633;27;20127;-72
2022/06/09 05:20:54;;;;;;;28.73;7.38;;;;;;;;;;5345348;27;20496;-72
2022/06/09 05:23:26;;;;;;;22.92;6.55;;;;;;;;;;5344449;28;20023;-72
2022/06/09 05:25:58;;;;;;;26.20;7.75;;;;;;;;;;5344135;28;20031;-72
2022/06/09 05:28:30;;;;;;;25.02;6.75;;;;;;;;;;5344420;28;20012;-72
2022/06/09 05:31:02;;;;;;;16.90;5.55;;;;;;;;;;5343926;27;20789;-72
2022/06/09 05:33:33;;;;;;;23.17;5.95;;;;;;;;;;5344701;28;20022;-73
2022/06/09 05:36:04;;;;;;;15.93;5.30;;;;;;;;;;5344749;28;20019;-72
2022/06/09 05:47:05;;;;;;;21.77;4.85;;;;;;;;;;5343773;28;20047;-72
2022/06/09 05:49:36;;;;;;;22.65;5.65;;;;;;;;;;5344775;27;20095;-72
2022/06/09 05:52:07;;;;;;;18.98;5.43;;;;;;;;;;5343888;28;20050;-72
2022/06/09 05:54:38;;;;;;;22.48;5.25;;;;;;;;;;5344386;28;20268;-72
2022/06/09 05:57:10;;;;;;;24.43;5.63;;;;;;;;;;5344484;28;20401;-72
2022/06/09 05:59:41;;;;;;;21.02;4.53;;;;;;;;;;5343629;28;20256;-72
2022/06/09 06:02:12;;;;;;;20.65;4.80;;;;;;;;;;5344256;28;20047;-72
2022/06/09 06:04:44;;;;;;;23.25;6.03;;;;;;;;;;5344460;28;20015;-72
2022/06/09 06:07:15;;;;;;;22.55;4.90;;;;;;;;;;5343398;27;20019;-72
2022/06/09 06:09:47;;;;;;;18.48;4.53;;;;;;;;;;5346474;27;20015;-72
2022/06/09 06:12:18;;;;;;;18.38;4.28;;;;;;;;;;5348053;27;20062;-72
2022/06/09 06:14:49;;;;;;;17.83;4.50;;;;;;;;;;5347873;27;20023;-72
2022/06/09 06:17:20;;;;;;;19.80;4.50;;;;;;;;;;5347688;27;20043;-72
2022/06/09 06:19:51;;;;;;;18.60;4.03;;;;;;;;;;5348449;27;20332;-72
2022/06/09 06:22:23;;;;;;;18.65;4.90;;;;;;;;;;5346943;27;20265;-72
2022/06/09 06:24:54;;;;;;;12.75;4.07;;;;;;;;;;5348197;27;20260;-72
2022/06/09 06:27:25;;;;;;;16.75;4.78;;;;;;;;;;5347067;27;20487;-72
2022/06/09 06:29:56;;;;;;;16.73;4.50;;;;;;;;;;5348321;27;20072;-72
2022/06/09 06:32:27;;;;;;;13.53;4.17;;;;;;;;;;5347664;27;20034;-72
2022/06/09 06:34:59;;;;;;;15.55;3.78;;;;;;;;;;5347393;27;20296;-72
2022/06/09 06:37:30;;;;;;;12.90;3.33;;;;;;;;;;5347702;27;20265;-72
2022/06/09 06:40:02;;;;;;;18.57;4.13;;;;;;;;;;5347990;27;20054;-72
2022/06/09 06:42:33;;;;;;;14.60;4.28;;;;;;;;;;5346927;27;20392;-71
2022/06/09 06:45:04;;;;;;;12.48;3.70;;;;;;;;;;5347509;27;20031;-72
2022/06/09 06:47:36;;;;;;;18.13;3.70;;;;;;;;;;5347854;27;20023;-72
2022/06/09 06:50:07;;;;;;;14.80;2.97;;;;;;;;;;5346824;27;20098;-72
2022/06/09 06:52:39;;;;;;;11.18;2.67;;;;;;;;;;5347764;27;20790;-72
2022/06/09 06:55:13;;;;;;;11.48;3.08;;;;;;;;;;5346768;27;20027;-72
2022/06/09 06:57:44;;;;;;;10.20;3.05;;;;;;;;;;5347464;27;20094;-72
2022/06/09 07:00:18;;;;;;;13.70;3.20;;;;;;;;;;5347530;27;20171;-72
2022/06/09 07:02:50;;;;;;;13.55;3.45;;;;;;;;;;5347185;27;20445;-72
2022/06/09 07:05:21;;;;;;;12.82;4.43;;;;;;;;;;5346952;27;20035;-72
2022/06/09 07:07:53;;;;;;;12.48;3.03;;;;;;;;;;5347484;27;20441;-72
2022/06/09 07:10:24;;;;;;;12.15;3.20;;;;;;;;;;5346145;27;20471;-72
2022/06/09 07:12:56;;;;;;;11.10;3.30;;;;;;;;;;5347698;27;20014;-72
2022/06/09 07:15:27;;;;;;;11.05;3.08;;;;;;;;;;5346981;27;20015;-72
2022/06/09 07:17:58;;;;;;;10.10;2.00;;;;;;;;;;5346439;27;20039;-72
2022/06/09 07:20:30;;;;;;;8.00;2.20;;;;;;;;;;5345449;27;20465;-72
2022/06/09 07:23:01;;;;;;;9.70;2.58;;;;;;;;;;5347152;27;20040;-72
2022/06/09 07:25:32;;;;;;;6.40;1.30;;;;;;;;;;5346025;27;20031;-73
2022/06/09 07:28:04;;;;;;;6.63;1.67;;;;;;;;;;5346969;27;20015;-73
2022/06/09 07:30:35;;;;;;;3.20;0.65;;;;;;;;;;5346087;27;21027;-71
2022/06/09 07:33:06;;;;;;;5.03;0.80;;;;;;;;;;5346618;27;20047;-71
2022/06/09 07:35:39;;;;;;;5.50;0.63;;;;;;;;;;5347117;27;20023;-71
2022/06/09 07:38:11;;;;;;;3.55;0.52;;;;;;;;;;5345996;27;20023;-71
2022/06/09 07:40:42;;;;;;;4.05;0.70;;;;;;;;;;5346830;27;20106;-72
2022/06/09 07:43:13;;;;;;;8.02;0.65;;;;;;;;;;5346739;27;20083;-72
2022/06/09 07:45:46;;;;;;;6.70;0.88;;;;;;;;;;5345717;27;20070;-72
2022/06/09 07:48:19;;;;;;;5.90;0.50;;;;;;;;;;5346602;27;20015;-72
2022/06/09 07:50:50;;;;;;;5.78;0.47;;;;;;;;;;5346643;27;20023;-73
2022/06/09 07:53:22;;;;;;;3.50;0.50;;;;;;;;;;5345445;27;20454;-73
2022/06/09 07:55:53;;;;;;;6.05;0.50;;;;;;;;;;5346653;27;20020;-73
2022/06/09 07:58:25;;;;;;;3.90;0.82;;;;;;;;;;5345237;27;20015;-73
2022/06/09 08:00:56;;;;;;;1.80;0.40;;;;;;;;;;5346829;27;20068;-73
2022/06/09 08:03:27;;;;;;;6.43;0.38;;;;;;;;;;5345864;27;20276;-73
2022/06/09 08:05:58;;;;;;;4.35;0.40;;;;;;;;;;5345762;27;20358;-73
2022/06/09 08:08:30;;;;;;;2.60;0.40;;;;;;;;;;5345899;27;20015;-71
2022/06/09 08:11:01;;;;;;;5.28;0.50;;;;;;;;;;5346150;27;20280;-75
2022/06/09 08:13:32;;;;;;;3.80;0.40;;;;;;;;;;5345279;27;20063;-73
2022/06/09 08:16:04;;;;;;;2.83;0.40;;;;;;;;;;5345816;27;20015;-73
2022/06/09 08:18:35;;;;;;;2.92;0.43;;;;;;;;;;5345720;27;20244;-73
2022/06/09 08:21:07;;;;;;;2.63;0.33;;;;;;;;;;5344951;27;20110;-73
2022/06/09 08:23:38;;;;;;;2.85;0.47;;;;;;;;;;5346002;27;20273;-73
2022/06/09 08:26:09;;;;;;;2.43;0.40;;;;;;;;;;5345642;27;20121;-73
2022/06/09 08:28:40;;;;;;;2.65;0.38;;;;;;;;;;5345144;27;20747;-73
2022/06/09 08:31:12;;;;;;;3.50;0.82;;;;;;;;;;5345321;27;20098;-73
2022/06/09 08:33:44;;;;;;;1.73;0.30;;;;;;;;;;5344814;27;20015;-73
2022/06/09 08:36:15;;;;;;;1.63;0.43;;;;;;;;;;5345788;27;20019;-73
2022/06/09 08:38:48;;;;;;;1.50;0.40;;;;;;;;;;5345846;27;20018;-72
2022/06/09 08:41:27;;;;;;;3.55;0.40;;;;;;;;;;5344476;27;20019;-73
2022/06/09 08:44:11;;;;;;;3.85;0.50;;;;;;;;;;5345757;27;20050;-73
2022/06/09 08:46:42;;;;;;;1.75;0.40;;;;;;;;;;5345632;27;20076;-73
2022/06/09 08:49:16;;;;;;;2.30;0.40;;;;;;;;;;5344796;27;20019;-75
2022/06/09 08:51:49;;;;;;;1.75;0.30;;;;;;;;;;5345419;27;20273;-75
2022/06/09 08:54:27;;;;;;;9.10;0.30;;;;;;;;;;5344930;27;20019;-75
2022/06/09 08:57:01;;;;;;;3.70;0.40;;;;;;;;;;5344575;27;20025;-74
2022/06/09 08:59:37;;;;;;;2.65;0.40;;;;;;;;;;5345320;27;20043;-74
2022/06/09 09:02:17;;;;;;;8.20;0.40;;;;;;;;;;5344425;27;20031;-74
2022/06/09 09:04:53;;;;;;;4.28;0.40;;;;;;;;;;5345031;27;20026;-75
2022/06/09 09:07:27;;;;;;;2.08;0.35;;;;;;;;;;5344969;27;20440;-73
2022/06/09 09:10:07;;;;;;;3.58;0.50;;;;;;;;;;5344813;27;20422;-74
2022/06/09 09:12:44;;;;;;;6.00;0.55;;;;;;;;;;5345145;27;20031;-73
2022/06/09 09:15:15;;;;;;;2.15;0.50;;;;;;;;;;5345113;28;20038;-73
2022/06/09 09:17:58;;;;;;;4.32;0.50;;;;;;;;;;5344346;28;20039;-74
2022/06/09 09:20:31;;;;;;;3.33;0.40;;;;;;;;;;5344805;27;20024;-74
2022/06/09 09:23:03;;;;;;;2.33;0.30;;;;;;;;;;5344238;28;20019;-73
2022/06/09 09:25:52;;;;;;;4.43;1.08;;;;;;;;;;5344541;27;20041;-71
2022/06/09 09:28:32;;;;;;;4.47;0.50;;;;;;;;;;5344490;28;20016;-73
2022/06/09 09:31:18;;;;;;;6.47;0.40;;;;;;;;;;5344212;27;20099;-71
2022/06/09 09:33:49;;;;;;;3.67;0.80;;;;;;;;;;5345063;28;20027;-71
2022/06/09 09:36:23;;;;;;;3.17;0.60;;;;;;;;;;5344249;28;20068;-71
2022/06/09 09:38:57;;;;;;;1.70;0.65;;;;;;;;;;5344312;27;20102;-70
2022/06/09 09:41:31;;;;;;;3.13;0.45;;;;;;;;;;5336258;27;20064;-71
2022/06/09 09:44:20;;;;;;;3.10;0.55;;;;;;;;;;5343606;27;20064;-72
2022/06/09 09:46:53;;;;;;;5.70;0.60;;;;;;;;;;5348448;27;20035;-71
2022/06/09 09:49:31;;;;;;;2.92;0.60;;;;;;;;;;5347957;27;20019;-71
2022/06/09 09:52:23;;;;;;;3.80;0.98;;;;;;;;;;5347908;27;20023;-71
2022/06/09 09:54:54;;;;;;;5.53;0.70;;;;;;;;;;5348331;27;20027;-71
2022/06/09 09:57:28;;;;;;;4.97;1.35;;;;;;;;;;5348405;27;20027;-72
2022/06/09 09:59:59;;;;;;;2.45;0.60;;;;;;;;;;5348599;27;20126;-72
2022/06/09 10:14:38;;;;;;;25.42;5.63;;;;;;;;;;5346999;27;20035;-70
2022/06/09 10:17:25;;;;;;;19.33;5.28;;;;;;;;;;5348219;27;20122;-71
2022/06/09 10:20:11;;;;;;;10.43;3.80;;;;;;;;;;5347645;27;20091;-70
2022/06/09 10:22:53;;;;;;;10.52;4.47;;;;;;;;;;5347922;27;20034;-70
2022/06/09 10:25:27;;;;;;;8.52;5.18;;;;;;;;;;5347640;27;20023;-70
2022/06/09 10:28:01;;;;;;;8.82;5.25;;;;;;;;;;5347398;27;20072;-70
2022/06/09 10:30:37;;;;;;;10.13;6.25;;;;;;;;;;5348044;27;20448;-70
2022/06/09 10:33:12;;;;;;;12.50;7.63;;;;;;;;;;5347459;27;20370;-70
2022/06/09 10:35:58;;;;;;;9.27;8.38;;;;;;;;;;5347838;27;20074;-70
2022/06/09 10:38:33;;;;;;;13.48;9.27;;;;;;;;;;5347524;27;20026;-71
2022/06/09 10:41:09;;;;;;;10.48;9.48;;;;;;;;;;5347384;27;20015;-70
2022/06/09 10:43:40;;;;;;;11.57;9.10;;;;;;;;;;5347858;27;20015;-70
2022/06/09 10:46:11;;;;;;;11.23;10.10;;;;;;;;;;5336076;27;20038;-70
2022/06/09 10:57:46;;;;;;;11.45;8.38;;;;;;;;;;5346287;27;20482;-71
2022/06/09 11:00:25;;;;;;;10.65;8.45;;;;;;;;;;5346884;27;20160;-70
2022/06/09 11:02:59;;;;;;;5.45;3.25;;;;;;;;;;5346682;27;20357;-70
2022/06/09 11:05:53;;;;;;;4.78;3.22;;;;;;;;;;5346052;27;20036;-71
2022/06/09 11:08:38;;;;;;;5.75;3.20;;;;;;;;;;5345910;27;20019;-71
2022/06/09 11:11:23;;;;;;;9.02;2.92;;;;;;;;;;5347104;27;20027;-71
2022/06/09 11:14:11;;;;;;;6.30;1.75;;;;;;;;;;5347310;27;20075;-71
2022/06/09 11:16:42;;;;;;;7.50;2.20;;;;;;;;;;5346256;27;20072;-70
2022/06/09 11:19:13;;;;;;;5.13;1.42;;;;;;;;;;5346392;27;20031;-71
2022/06/09 11:21:50;;;;;;;5.10;1.40;;;;;;;;;;5346995;27;20411;-71
2022/06/09 11:24:24;;;;;;;6.90;1.00;;;;;;;;;;5345874;27;20359;-71
2022/06/09 11:27:15;;;;;;;5.60;1.60;;;;;;;;;;5347338;27;20035;-71
2022/06/09 11:30:02;;;;;;;4.97;1.08;;;;;;;;;;5293469;27;20028;-71
2022/06/09 11:32:36;;;;;;;5.63;1.30;;;;;;;;;;5346636;27;20366;-72
2022/06/09 11:35:15;;;;;;;4.90;0.82;;;;;;;;;;5346907;27;20045;-71
2022/06/09 11:38:06;;;;;;;5.85;1.25;;;;;;;;;;5346085;27;20023;-71
2022/06/09 11:40:43;;;;;;;8.93;1.48;;;;;;;;;;5346686;27;20027;-71
2022/06/09 11:43:14;;;;;;;5.20;0.90;;;;;;;;;;5346298;27;20027;-71
2022/06/09 11:45:48;;;;;;;6.10;0.95;;;;;;;;;;5345598;27;20133;-71
2022/06/09 11:48:30;;;;;;;5.32;0.73;;;;;;;;;;5346143;27;20061;-71
2022/06/09 11:51:02;;;;;;;5.68;0.80;;;;;;;;;;5345758;27;20100;-72
2022/06/09 11:53:44;;;;;;;4.53;0.73;;;;;;;;;;5346154;27;20019;-72
2022/06/09 11:56:33;;;;;;;5.55;1.23;;;;;;;;;;5346256;27;20026;-71
2022/06/09 11:59:42;;;;;;;6.85;1.27;;;;;;;;;;5345662;27;20462;-71
2022/06/09 12:02:17;;;;;;;10.27;1.27;;;;;;;;;;5345256;27;20102;-71
2022/06/09 12:04:48;;;;;;;7.25;1.38;;;;;;;;;;5345202;27;20011;-71
2022/06/09 12:07:25;;;;;;;5.47;1.13;;;;;;;;;;5344685;27;20050;-71
2022/06/09 12:10:02;;;;;;;6.80;1.02;;;;;;;;;;5346324;27;20047;-71
2022/06/09 12:12:36;;;;;;;7.32;1.60;;;;;;;;;;5344851;27;20023;-71
2022/06/09 12:15:25;;;;;;;10.10;1.02;;;;;;;;;;5346066;27;20060;-70
2022/06/09 12:17:56;;;;;;;7.80;1.35;;;;;;;;;;5345806;27;20058;-70
2022/06/09 12:20:32;;;;;;;6.45;1.30;;;;;;;;;;5344543;27;20027;-70
2022/06/09 12:23:21;;;;;;;5.43;0.98;;;;;;;;;;5345853;27;20023;-70
2022/06/09 12:26:11;;;;;;;6.45;1.05;;;;;;;;;;5345279;27;20031;-70
2022/06/09 12:28:49;;;;;;;6.45;1.92;;;;;;;;;;5345282;27;20151;-70
2022/06/09 12:31:20;;;;;;;5.95;1.50;;;;;;;;;;5344768;27;20031;-70
2022/06/09 12:34:00;;;;;;;5.25;2.17;;;;;;;;;;5345173;27;20022;-70
2022/06/09 12:36:47;;;;;;;7.13;2.67;;;;;;;;;;5345015;27;20030;-70
2022/06/09 12:39:24;;;;;;;8.90;2.97;;;;;;;;;;5344973;27;20477;-70
2022/06/09 12:41:55;;;;;;;6.82;3.05;;;;;;;;;;5345137;27;20355;-69
2022/06/09 12:44:32;;;;;;;6.82;2.50;;;;;;;;;;5345081;27;20025;-70
2022/06/09 12:47:17;;;;;;;5.53;1.50;;;;;;;;;;5344222;27;20042;-70
2022/06/09 12:49:50;;;;;;;7.30;2.10;;;;;;;;;;5345010;27;20035;-70
2022/06/09 12:52:24;;;;;;;6.53;1.73;;;;;;;;;;5344885;27;20377;-70
2022/06/09 12:54:57;;;;;;;6.53;1.20;;;;;;;;;;5344875;27;20023;-70
2022/06/09 12:57:30;;;;;;;4.97;0.85;;;;;;;;;;5344920;27;20057;-70
2022/06/09 13:00:14;;;;;;;6.07;0.95;;;;;;;;;;5345253;27;20553;-71
2022/06/09 13:02:45;;;;;;;4.25;0.77;;;;;;;;;;5344457;27;20354;-70
2022/06/09 13:05:16;;;;;;;7.60;0.90;;;;;;;;;;5345082;27;20019;-70
2022/06/09 13:07:53;;;;;;;9.37;0.93;;;;;;;;;;5345176;27;20022;-70
2022/06/09 13:10:38;;;;;;;5.03;0.70;;;;;;;;;;5344358;27;20276;-70
2022/06/09 13:13:20;;;;;;;5.55;0.88;;;;;;;;;;5336105;28;20047;-70
2022/06/09 13:16:00;;;;;;;5.28;1.10;;;;;;;;;;5343994;28;20154;-70
2022/06/09 13:18:32;;;;;;;7.28;1.35;;;;;;;;;;5346424;27;20043;-71
2022/06/09 13:21:16;;;;;;;8.98;0.90;;;;;;;;;;5348913;27;20042;-71
2022/06/09 13:23:49;;;;;;;3.67;0.50;;;;;;;;;;5348614;27;20410;-71
2022/06/09 13:26:22;;;;;;;6.28;0.43;;;;;;;;;;5348916;27;20542;-71
2022/06/09 13:28:57;;;;;;;5.03;0.52;;;;;;;;;;5349514;27;20015;-72
2022/06/09 13:31:34;;;;;;;6.75;0.50;;;;;;;;;;5335279;27;20412;-71
2022/06/09 13:34:24;;;;;;;5.78;0.93;;;;;;;;;;5336727;27;20102;-72
2022/06/09 13:36:55;;;;;;;4.28;1.00;;;;;;;;;;5346967;27;20023;-73
2022/06/09 13:39:29;;;;;;;3.63;0.40;;;;;;;;;;5347134;27;20450;-72
2022/06/09 13:42:10;;;;;;;5.63;0.60;;;;;;;;;;5347738;27;20098;-72
2022/06/09 13:44:53;;;;;;;5.38;0.50;;;;;;;;;;5347447;27;20019;-73
2022/06/09 13:47:28;;;;;;;7.10;0.85;;;;;;;;;;5347203;27;20046;-72
2022/06/09 13:50:11;;;;;;;6.38;0.80;;;;;;;;;;5348005;27;20030;-71
2022/06/09 13:53:11;;;;;;;2.70;0.40;;;;;;;;;;5347734;27;20098;-72
2022/06/09 13:55:43;;;;;;;3.28;0.30;;;;;;;;;;5347587;27;20023;-72
2022/06/09 13:58:14;;;;;;;2.33;0.30;;;;;;;;;;5347079;27;20484;-71
2022/06/09 14:00:51;;;;;;;3.75;0.65;;;;;;;;;;5347714;27;20382;-72
2022/06/09 14:03:27;;;;;;;4.32;0.40;;;;;;;;;;5347694;27;20068;-71
2022/06/09 14:06:00;;;;;;;5.07;0.60;;;;;;;;;;5347627;27;20027;-71
2022/06/09 14:08:32;;;;;;;6.50;0.73;;;;;;;;;;5348469;27;20019;-72
2022/06/09 14:11:05;;;;;;;4.65;0.43;;;;;;;;;;5348294;27;20422;-73
2022/06/09 14:13:36;;;;;;;4.40;0.60;;;;;;;;;;5347774;27;20433;-72
2022/06/09 14:16:07;;;;;;;4.13;0.50;;;;;;;;;;5348279;27;20110;-71
2022/06/09 14:18:38;;;;;;;5.35;0.40;;;;;;;;;;5347102;27;20039;-72
2022/06/09 14:21:10;;;;;;;5.60;0.73;;;;;;;;;;5347997;27;20446;-72
2022/06/09 14:23:41;;;;;;;7.43;0.60;;;;;;;;;;5347974;27;20688;-72
2022/06/09 14:26:17;;;;;;;4.63;0.40;;;;;;;;;;5347447;27;20487;-72
2022/06/09 14:28:49;;;;;;;6.50;0.50;;;;;;;;;;5348055;27;20304;-72
2022/06/09 14:31:22;;;;;;;4.85;0.40;;;;;;;;;;5346867;27;20117;-72
2022/06/09 14:33:54;;;;;;;4.72;0.50;;;;;;;;;;5347529;27;20012;-71
2022/06/09 14:36:25;;;;;;;5.78;0.40;;;;;;;;;;5347672;27;20019;-71
2022/06/09 14:38:57;;;;;;;3.85;0.40;;;;;;;;;;5344897;27;20015;-71
2022/06/09 14:41:29;;;;;;;6.15;0.55;;;;;;;;;;5346805;27;20080;-72
2022/06/09 14:44:00;;;;;;;4.13;0.38;;;;;;;;;;5347726;27;20012;-72
2022/06/09 14:46:36;;;;;;;5.60;0.63;;;;;;;;;;5346641;27;20054;-71
2022/06/09 14:49:11;;;;;;;4.05;0.60;;;;;;;;;;5347575;27;20288;-71
2022/06/09 14:51:42;;;;;;;6.93;0.80;;;;;;;;;;5347864;27;20076;-72
2022/06/09 14:54:13;;;;;;;6.00;0.70;;;;;;;;;;5346827;27;20015;-71
2022/06/09 14:56:45;;;;;;;3.55;0.40;;;;;;;;;;5347503;27;20015;-72
2022/06/09 14:59:17;;;;;;;4.55;0.32;;;;;;;;;;5347598;27;20019;-71
2022/06/09 15:01:48;;;;;;;4.53;0.75;;;;;;;;;;5346698;27;20033;-71
2022/06/09 15:04:19;;;;;;;4.88;0.50;;;;;;;;;;5346907;27;20802;-72
2022/06/09 15:06:51;;;;;;;6.63;0.50;;;;;;;;;;5347544;27;20071;-72
2022/06/09 15:09:24;;;;;;;4.57;0.45;;;;;;;;;;5346137;27;20019;-71
2022/06/09 15:11:56;;;;;;;5.22;0.75;;;;;;;;;;5347799;27;20011;-72
2022/06/09 15:14:27;;;;;;;3.88;0.40;;;;;;;;;;5346586;27;20382;-71
2022/06/09 15:16:59;;;;;;;3.88;0.43;;;;;;;;;;5346844;27;20019;-70
2022/06/09 15:19:30;;;;;;;6.13;0.50;;;;;;;;;;5346514;27;20102;-72
2022/06/09 15:22:01;;;;;;;4.15;0.50;;;;;;;;;;5346109;27;20026;-72
2022/06/09 15:24:33;;;;;;;7.30;0.63;;;;;;;;;;5346793;27;20019;-71
2022/06/09 15:27:04;;;;;;;5.15;0.50;;;;;;;;;;5346895;27;20067;-72
2022/06/09 15:29:35;;;;;;;7.60;0.70;;;;;;;;;;5346016;27;20015;-72
2022/06/09 15:32:07;;;;;;;3.10;0.40;;;;;;;;;;5346610;27;20111;-72
2022/06/09 15:34:38;;;;;;;9.93;0.70;;;;;;;;;;5346519;27;20747;-71
2022/06/09 15:37:09;;;;;;;8.27;0.70;;;;;;;;;;5345747;27;20020;-71
2022/06/09 15:39:40;;;;;;;5.57;0.60;;;;;;;;;;5346317;27;20489;-71
2022/06/09 15:42:12;;;;;;;5.25;0.50;;;;;;;;;;5345320;27;20354;-71
2022/06/09 15:44:43;;;;;;;5.82;0.80;;;;;;;;;;5345510;27;20022;-71
2022/06/09 15:47:14;;;;;;;6.82;0.50;;;;;;;;;;5346423;27;20071;-71